Time;durP1;ratioP1;P1;durP2;ratioP2;P2;SDS_P1;SDS_P2;PMS_P1;PMS_P2;Temp;Humidity;BMP_temperature;BMP_pressure;BME280_temperature;BME280_humidity;BME280_pressure;Samples;Min_cycle;Max_cycle;Signal;HPM_P1;HPM_P2
2023/06/03 00:01:58;;;;;;;;;12.00;11.33;;;;;;;;5060747;28;45346;-74
2023/06/03 00:04:23;;;;;;;;;14.33;13.00;;;;;;;;5060732;28;45337;-73
2023/06/03 00:06:48;;;;;;;;;16.00;12.00;;;;;;;;5060590;28;45478;-74
2023/06/03 00:09:14;;;;;;;;;11.67;11.67;;;;;;;;5060829;28;45153;-73
2023/06/03 00:11:39;;;;;;;;;11.33;11.33;;;;;;;;5059429;28;45343;-74
2023/06/03 00:14:05;;;;;;;;;13.00;12.33;;;;;;;;5060794;28;45346;-74
2023/06/03 00:16:32;;;;;;;;;12.33;12.33;;;;;;;;5060717;28;45300;-74
2023/06/03 00:18:57;;;;;;;;;13.67;12.33;;;;;;;;5060543;28;46054;-74
2023/06/03 00:21:24;;;;;;;;;11.33;10.67;;;;;;;;5058489;28;45370;-74
2023/06/03 00:23:49;;;;;;;;;12.33;12.33;;;;;;;;5059333;28;45258;-75
2023/06/03 00:26:14;;;;;;;;;14.33;13.33;;;;;;;;5058899;28;45958;-74
2023/06/03 00:28:39;;;;;;;;;11.00;11.00;;;;;;;;5055914;28;45235;-74
2023/06/03 00:31:05;;;;;;;;;14.00;12.33;;;;;;;;5060103;28;45496;-74
2023/06/03 00:33:30;;;;;;;;;11.33;10.67;;;;;;;;5060460;28;45279;-74
2023/06/03 00:35:56;;;;;;;;;12.67;12.33;;;;;;;;5058732;28;47317;-74
2023/06/03 00:38:21;;;;;;;;;12.33;12.33;;;;;;;;5060040;28;45406;-74
2023/06/03 00:40:46;;;;;;;;;14.00;12.00;;;;;;;;5060206;28;45270;-74
2023/06/03 00:43:11;;;;;;;;;12.00;12.00;;;;;;;;5059121;28;45247;-73
2023/06/03 00:45:36;;;;;;;;;13.00;11.67;;;;;;;;5058806;28;46029;-73
2023/06/03 00:48:02;;;;;;;;;12.67;12.67;;;;;;;;5060134;28;46565;-74
2023/06/03 00:50:27;;;;;;;;;16.00;15.00;;;;;;;;5059839;28;45240;-74
2023/06/03 00:52:53;;;;;;;;;10.67;9.00;;;;;;;;5060265;28;45188;-74
2023/06/03 00:55:18;;;;;;;;;13.00;13.00;;;;;;;;5059916;28;45477;-74
2023/06/03 00:57:44;;;;;;;;;15.33;13.00;;;;;;;;5059708;28;45159;-74
2023/06/03 01:00:09;;;;;;;;;14.67;13.67;;;;;;;;5060017;28;45235;-74
2023/06/03 01:02:36;;;;;;;;;12.33;12.33;;;;;;;;5059411;28;45323;-73
2023/06/03 01:05:03;;;;;;;;;14.33;14.33;;;;;;;;5059683;28;45380;-74
2023/06/03 01:07:36;;;;;;;;;12.33;12.33;;;;;;;;5058257;28;48246;-74
2023/06/03 01:10:20;;;;;;;;;11.67;11.67;;;;;;;;5058410;28;45416;-73
2023/06/03 01:12:51;;;;;;;;;15.67;15.33;;;;;;;;5059708;28;45489;-74
2023/06/03 01:15:24;;;;;;;;;14.67;12.67;;;;;;;;5059674;28;45205;-74
2023/06/03 01:17:51;;;;;;;;;14.00;12.67;;;;;;;;5058153;28;48856;-73
2023/06/03 01:20:16;;;;;;;;;15.00;15.00;;;;;;;;5059400;28;45353;-74
2023/06/03 01:22:43;;;;;;;;;12.33;11.33;;;;;;;;5058315;28;45288;-73
2023/06/03 01:25:12;;;;;;;;;15.00;14.00;;;;;;;;5059641;28;45464;-73
2023/06/03 01:27:38;;;;;;;;;15.67;14.67;;;;;;;;5059338;28;45456;-74
2023/06/03 01:30:08;;;;;;;;;17.67;16.33;;;;;;;;5058017;28;45711;-74
2023/06/03 01:32:34;;;;;;;;;13.00;13.00;;;;;;;;5058389;28;45295;-74
2023/06/03 01:35:00;;;;;;;;;18.33;16.67;;;;;;;;5059254;28;45298;-74
2023/06/03 01:37:26;;;;;;;;;17.67;17.00;;;;;;;;5058942;28;46530;-73
2023/06/03 01:39:52;;;;;;;;;13.00;11.67;;;;;;;;5057937;28;46214;-74
2023/06/03 01:42:17;;;;;;;;;20.67;16.33;;;;;;;;5058032;28;45374;-74
2023/06/03 01:44:42;;;;;;;;;17.00;15.00;;;;;;;;5059191;28;45284;-73
2023/06/03 01:47:07;;;;;;;;;19.00;16.33;;;;;;;;5059357;28;45326;-74
2023/06/03 01:49:33;;;;;;;;;18.33;17.33;;;;;;;;5059118;28;45377;-73
2023/06/03 01:51:58;;;;;;;;;17.33;16.00;;;;;;;;5057813;28;45272;-74
2023/06/03 01:54:25;;;;;;;;;17.67;16.33;;;;;;;;5059236;28;45279;-73
2023/06/03 01:56:51;;;;;;;;;22.00;18.67;;;;;;;;5059017;28;47329;-74
2023/06/03 01:59:16;;;;;;;;;18.67;17.33;;;;;;;;5057832;28;45296;-74
2023/06/03 02:01:43;;;;;;;;;20.00;18.00;;;;;;;;5059179;28;45319;-74
2023/06/03 02:04:09;;;;;;;;;18.33;17.00;;;;;;;;5058892;28;45161;-74
2023/06/03 02:06:36;;;;;;;;;15.00;14.33;;;;;;;;5057558;28;46185;-74
2023/06/03 02:09:01;;;;;;;;;17.33;16.00;;;;;;;;5059065;28;45386;-74
2023/06/03 02:11:27;;;;;;;;;17.33;17.33;;;;;;;;5060149;28;45304;-74
2023/06/03 02:13:52;;;;;;;;;16.00;15.67;;;;;;;;5062541;28;45216;-74
2023/06/03 02:16:17;;;;;;;;;18.67;18.33;;;;;;;;5062392;28;45399;-74
2023/06/03 02:18:42;;;;;;;;;14.33;14.00;;;;;;;;5062524;28;45308;-74
2023/06/03 02:21:08;;;;;;;;;16.67;16.67;;;;;;;;5062225;28;45350;-74
2023/06/03 02:23:33;;;;;;;;;20.00;19.00;;;;;;;;5062355;28;45424;-74
2023/06/03 02:25:58;;;;;;;;;17.00;16.33;;;;;;;;5062344;28;46110;-74
2023/06/03 02:28:24;;;;;;;;;19.33;18.00;;;;;;;;5062152;28;45507;-73
2023/06/03 02:30:49;;;;;;;;;18.67;16.67;;;;;;;;5062456;28;45287;-74
2023/06/03 02:33:15;;;;;;;;;22.00;21.00;;;;;;;;5060763;28;45989;-73
2023/06/03 02:35:40;;;;;;;;;20.67;20.67;;;;;;;;5061965;28;45419;-74
2023/06/03 02:38:05;;;;;;;;;22.00;19.33;;;;;;;;5060460;28;45486;-73
2023/06/03 02:40:30;;;;;;;;;17.33;17.33;;;;;;;;5062310;28;45296;-73
2023/06/03 02:42:55;;;;;;;;;21.33;19.00;;;;;;;;5062067;28;45304;-74
2023/06/03 02:45:21;;;;;;;;;21.67;21.67;;;;;;;;5060741;28;48221;-74
2023/06/03 02:47:46;;;;;;;;;17.67;17.33;;;;;;;;5061985;28;45298;-73
2023/06/03 02:50:11;;;;;;;;;22.33;22.33;;;;;;;;5061932;28;45532;-74
2023/06/03 02:52:36;;;;;;;;;21.33;20.00;;;;;;;;5061943;28;45395;-74
2023/06/03 02:55:01;;;;;;;;;19.33;18.67;;;;;;;;5060555;28;48109;-74
2023/06/03 02:57:27;;;;;;;;;20.00;18.33;;;;;;;;5060213;28;45863;-74
2023/06/03 02:59:52;;;;;;;;;21.67;20.33;;;;;;;;5061887;28;45464;-73
2023/06/03 03:02:19;;;;;;;;;18.00;17.00;;;;;;;;5061758;28;45257;-73
2023/06/03 03:04:44;;;;;;;;;24.00;22.67;;;;;;;;5060012;28;47234;-73
2023/06/03 03:07:09;;;;;;;;;19.33;19.33;;;;;;;;5061573;28;45216;-73
2023/06/03 03:09:35;;;;;;;;;21.00;20.00;;;;;;;;5060549;28;45588;-74
2023/06/03 03:12:00;;;;;;;;;23.00;21.00;;;;;;;;5060149;28;45979;-74
2023/06/03 03:14:25;;;;;;;;;25.67;20.67;;;;;;;;5061421;28;46266;-74
2023/06/03 03:16:51;;;;;;;;;22.67;22.67;;;;;;;;5061608;28;45223;-74
2023/06/03 03:19:16;;;;;;;;;20.67;19.00;;;;;;;;5061543;28;45516;-73
2023/06/03 03:21:42;;;;;;;;;21.67;19.67;;;;;;;;5059822;28;46089;-74
2023/06/03 03:24:07;;;;;;;;;21.33;19.33;;;;;;;;5061332;28;46261;-73
2023/06/03 03:26:32;;;;;;;;;22.00;21.00;;;;;;;;5059917;28;45337;-75
2023/06/03 03:28:58;;;;;;;;;19.33;19.33;;;;;;;;5061364;28;45274;-74
2023/06/03 03:31:23;;;;;;;;;20.67;18.00;;;;;;;;5061318;28;45473;-73
2023/06/03 03:33:49;;;;;;;;;21.33;21.00;;;;;;;;5061088;28;46102;-73
2023/06/03 03:36:24;;;;;;;;;17.33;16.67;;;;;;;;5060962;28;45362;-74
2023/06/03 03:39:03;;;;;;;;;20.33;19.00;;;;;;;;5059735;28;45386;-73
2023/06/03 03:41:28;;;;;;;;;19.33;17.67;;;;;;;;5060950;28;45283;-74
2023/06/03 03:43:53;;;;;;;;;18.67;18.67;;;;;;;;5061033;28;45270;-73
2023/06/03 03:46:19;;;;;;;;;19.67;19.33;;;;;;;;5061109;28;45335;-74
2023/06/03 03:48:45;;;;;;;;;21.67;21.67;;;;;;;;5061362;28;45311;-73
2023/06/03 03:51:11;;;;;;;;;18.50;17.50;;;;;;;;5060804;28;45485;-73
2023/06/03 03:53:37;;;;;;;;;22.67;20.67;;;;;;;;5060667;28;45518;-74
2023/06/03 03:56:02;;;;;;;;;21.00;19.00;;;;;;;;5060941;28;45280;-74
2023/06/03 03:58:30;;;;;;;;;21.00;19.00;;;;;;;;5060993;28;45363;-74
2023/06/03 04:01:00;;;;;;;;;22.00;18.67;;;;;;;;5060773;28;45376;-74
2023/06/03 04:03:26;;;;;;;;;21.67;19.67;;;;;;;;5060692;28;45415;-74
2023/06/03 04:05:53;;;;;;;;;27.00;23.67;;;;;;;;5059042;28;45644;-75
2023/06/03 04:08:25;;;;;;;;;22.67;20.33;;;;;;;;5060893;28;45366;-74
2023/06/03 04:10:51;;;;;;;;;24.00;20.33;;;;;;;;5060481;28;45491;-73
2023/06/03 04:13:16;;;;;;;;;18.00;17.00;;;;;;;;5058962;28;47568;-74
2023/06/03 04:15:43;;;;;;;;;21.67;19.67;;;;;;;;5060621;28;45334;-74
2023/06/03 04:18:11;;;;;;;;;26.33;25.00;;;;;;;;5059296;28;45347;-74
2023/06/03 04:20:45;;;;;;;;;27.00;23.33;;;;;;;;5058704;28;46231;-74
2023/06/03 04:23:18;;;;;;;;;23.00;21.67;;;;;;;;5060427;28;45318;-74
2023/06/03 04:25:44;;;;;;;;;23.33;22.00;;;;;;;;5060284;28;45446;-74
2023/06/03 04:28:12;;;;;;;;;24.33;22.33;;;;;;;;5059233;28;45342;-73
2023/06/03 04:30:38;;;;;;;;;20.33;18.00;;;;;;;;5060284;28;45307;-73
2023/06/03 04:33:03;;;;;;;;;25.00;22.00;;;;;;;;5059557;28;45328;-74
2023/06/03 04:35:28;;;;;;;;;21.67;19.00;;;;;;;;5058419;28;45386;-74
2023/06/03 04:37:54;;;;;;;;;24.00;20.00;;;;;;;;5060080;28;45300;-74
2023/06/03 04:40:20;;;;;;;;;21.33;21.33;;;;;;;;5060218;28;45301;-74
2023/06/03 04:42:46;;;;;;;;;21.00;20.33;;;;;;;;5060091;28;46195;-74
2023/06/03 04:45:12;;;;;;;;;22.00;22.00;;;;;;;;5060195;28;45338;-74
2023/06/03 04:47:41;;;;;;;;;24.33;23.67;;;;;;;;5060208;28;45336;-73
2023/06/03 04:50:06;;;;;;;;;21.00;19.67;;;;;;;;5059959;28;45319;-73
2023/06/03 04:52:32;;;;;;;;;24.00;21.67;;;;;;;;5058461;28;48235;-74
2023/06/03 04:54:57;;;;;;;;;24.67;22.33;;;;;;;;5060062;28;45208;-73
2023/06/03 04:57:22;;;;;;;;;24.00;23.33;;;;;;;;5060046;28;45559;-74
2023/06/03 04:59:47;;;;;;;;;21.67;21.67;;;;;;;;5060108;28;45216;-75
2023/06/03 05:02:16;;;;;;;;;24.00;24.00;;;;;;;;5058373;28;47563;-74
2023/06/03 05:04:42;;;;;;;;;25.33;23.00;;;;;;;;5059036;28;45447;-73
2023/06/03 05:07:10;;;;;;;;;21.33;20.67;;;;;;;;5058173;28;45378;-74
2023/06/03 05:09:35;;;;;;;;;21.33;21.33;;;;;;;;5059802;28;45311;-73
2023/06/03 05:12:00;;;;;;;;;21.67;21.67;;;;;;;;5059486;28;46275;-74
2023/06/03 05:14:26;;;;;;;;;23.00;20.33;;;;;;;;5059768;28;45359;-74
2023/06/03 05:16:51;;;;;;;;;21.67;21.67;;;;;;;;5059997;28;45304;-73
2023/06/03 05:19:16;;;;;;;;;23.67;22.67;;;;;;;;5059448;28;45473;-73
2023/06/03 05:21:41;;;;;;;;;23.67;22.00;;;;;;;;5058084;28;48120;-73
2023/06/03 05:24:07;;;;;;;;;24.00;22.67;;;;;;;;5058483;28;45308;-73
2023/06/03 05:26:32;;;;;;;;;25.33;24.00;;;;;;;;5058231;28;45210;-74
2023/06/03 05:28:57;;;;;;;;;26.00;24.00;;;;;;;;5059403;28;45532;-73
2023/06/03 05:31:22;;;;;;;;;23.67;21.67;;;;;;;;5059437;28;45586;-74
2023/06/03 05:33:47;;;;;;;;;23.00;23.00;;;;;;;;5059602;28;45287;-74
2023/06/03 05:36:12;;;;;;;;;25.33;24.00;;;;;;;;5059377;28;45504;-74
2023/06/03 05:38:38;;;;;;;;;23.33;23.33;;;;;;;;5058985;28;45248;-74
2023/06/03 05:41:04;;;;;;;;;23.00;21.67;;;;;;;;5057997;28;48223;-73
2023/06/03 05:43:29;;;;;;;;;22.67;21.33;;;;;;;;5059254;28;45244;-74
2023/06/03 05:45:54;;;;;;;;;23.33;21.33;;;;;;;;5061423;28;45125;-73
2023/06/03 05:48:20;;;;;;;;;24.33;23.00;;;;;;;;5062998;28;45176;-73
2023/06/03 05:50:49;;;;;;;;;25.67;24.67;;;;;;;;5061164;28;47175;-75
2023/06/03 05:53:14;;;;;;;;;23.67;21.33;;;;;;;;5061487;28;45351;-75
2023/06/03 05:55:39;;;;;;;;;25.00;23.33;;;;;;;;5061647;28;45478;-77
2023/06/03 05:58:05;;;;;;;;;22.67;22.33;;;;;;;;5062759;28;45465;-76
2023/06/03 06:00:30;;;;;;;;;24.67;24.33;;;;;;;;5062817;28;47272;-74
2023/06/03 06:02:55;;;;;;;;;28.00;26.33;;;;;;;;5061338;28;45343;-74
2023/06/03 06:05:21;;;;;;;;;25.00;21.67;;;;;;;;5062759;28;45745;-76
2023/06/03 06:07:46;;;;;;;;;23.00;22.67;;;;;;;;5062670;28;45402;-75
2023/06/03 06:10:11;;;;;;;;;24.33;24.00;;;;;;;;5062682;28;46281;-75
2023/06/03 06:12:36;;;;;;;;;25.33;23.33;;;;;;;;5062543;28;45319;-75
2023/06/03 06:15:02;;;;;;;;;27.67;25.00;;;;;;;;5059912;28;45215;-76
2023/06/03 06:17:27;;;;;;;;;22.67;19.67;;;;;;;;5054367;28;45339;-75
2023/06/03 06:19:52;;;;;;;;;23.00;20.00;;;;;;;;5043666;28;45244;-74
2023/06/03 06:22:17;;;;;;;;;24.00;24.00;;;;;;;;5042109;28;45327;-75
2023/06/03 06:24:43;;;;;;;;;19.67;19.33;;;;;;;;5040767;28;45355;-74
2023/06/03 06:27:08;;;;;;;;;24.33;23.67;;;;;;;;5042196;28;45614;-77
2023/06/03 06:29:33;;;;;;;;;20.33;20.33;;;;;;;;5052540;28;45875;-76
2023/06/03 06:31:59;;;;;;;;;23.00;22.00;;;;;;;;5062227;28;45311;-75
2023/06/03 06:34:29;;;;;;;;;23.33;20.67;;;;;;;;5062327;28;45326;-75
2023/06/03 06:36:55;;;;;;;;;21.00;19.00;;;;;;;;5061959;28;45536;-76
2023/06/03 06:39:29;;;;;;;;;25.67;24.00;;;;;;;;5060981;28;45453;-75
2023/06/03 06:41:56;;;;;;;;;24.00;23.33;;;;;;;;5061137;28;45344;-77
2023/06/03 06:44:21;;;;;;;;;22.33;22.33;;;;;;;;5061006;28;45285;-75
2023/06/03 06:46:49;;;;;;;;;22.67;22.33;;;;;;;;5060838;28;45227;-77
2023/06/03 06:49:14;;;;;;;;;23.00;21.33;;;;;;;;5060708;28;46109;-75
2023/06/03 06:51:40;;;;;;;;;20.67;20.67;;;;;;;;5060599;28;45259;-75
2023/06/03 06:54:05;;;;;;;;;24.33;23.00;;;;;;;;5061031;28;45156;-77
2023/06/03 06:56:34;;;;;;;;;22.33;21.00;;;;;;;;5058950;28;46272;-78
2023/06/03 06:58:59;;;;;;;;;22.00;20.33;;;;;;;;5060800;28;45319;-74
2023/06/03 07:01:24;;;;;;;;;19.67;19.00;;;;;;;;5060389;28;45362;-75
2023/06/03 07:03:50;;;;;;;;;23.00;22.00;;;;;;;;5060628;28;45416;-75
2023/06/03 07:06:15;;;;;;;;;20.00;19.67;;;;;;;;5060420;28;45481;-74
2023/06/03 07:08:40;;;;;;;;;18.00;16.33;;;;;;;;5058835;28;47046;-75
2023/06/03 07:11:06;;;;;;;;;21.33;20.67;;;;;;;;5060428;28;45341;-74
2023/06/03 07:13:31;;;;;;;;;16.00;15.00;;;;;;;;5060554;28;45490;-75
2023/06/03 07:15:56;;;;;;;;;21.00;21.00;;;;;;;;5060317;28;45424;-75
2023/06/03 07:18:21;;;;;;;;;23.00;22.00;;;;;;;;5058992;28;47275;-75
2023/06/03 07:20:47;;;;;;;;;21.00;20.67;;;;;;;;5060074;28;45337;-76
2023/06/03 07:23:19;;;;;;;;;21.67;21.67;;;;;;;;5045250;28;45227;-75
2023/06/03 07:25:46;;;;;;;;;21.00;19.67;;;;;;;;5040097;28;45401;-75
2023/06/03 07:28:15;;;;;;;;;21.00;21.00;;;;;;;;5038413;28;47053;-75
2023/06/03 07:30:41;;;;;;;;;18.67;18.00;;;;;;;;5059710;28;45259;-74
2023/06/03 07:33:08;;;;;;;;;18.67;18.67;;;;;;;;5060043;28;45413;-74
2023/06/03 07:35:37;;;;;;;;;18.00;17.33;;;;;;;;5055742;28;47252;-76
2023/06/03 07:38:03;;;;;;;;;19.00;18.00;;;;;;;;5019610;28;1148339;-75
2023/06/03 07:40:42;;;;;;;;;16.67;15.67;;;;;;;;5061257;28;45299;-74
2023/06/03 07:43:11;;;;;;;;;21.00;21.00;;;;;;;;5059851;28;45334;-74
2023/06/03 07:45:36;;;;;;;;;18.67;18.67;;;;;;;;5059383;28;46801;-76
2023/06/03 07:48:02;;;;;;;;;20.00;20.00;;;;;;;;5061186;28;45976;-76
2023/06/03 07:50:28;;;;;;;;;18.00;18.00;;;;;;;;5060859;28;45264;-75
2023/06/03 07:53:04;;;;;;;;;21.33;19.00;;;;;;;;5059234;28;45341;-75
2023/06/03 07:55:34;;;;;;;;;20.33;20.33;;;;;;;;5061227;28;45284;-74
2023/06/03 07:58:00;;;;;;;;;18.00;18.00;;;;;;;;5060296;28;46958;-74
2023/06/03 08:00:25;;;;;;;;;17.67;17.67;;;;;;;;5060337;28;45375;-74
2023/06/03 08:02:50;;;;;;;;;20.67;20.00;;;;;;;;5058892;28;45333;-74
2023/06/03 08:05:17;;;;;;;;;22.00;22.00;;;;;;;;5060310;28;45450;-74
2023/06/03 08:07:43;;;;;;;;;18.00;17.00;;;;;;;;5059545;28;45484;-74
2023/06/03 08:10:15;;;;;;;;;21.33;19.00;;;;;;;;5058811;28;45283;-74
2023/06/03 08:12:42;;;;;;;;;19.00;19.00;;;;;;;;5060243;28;45348;-74
2023/06/03 08:15:18;;;;;;;;;16.00;16.00;;;;;;;;5059996;28;45572;-73
2023/06/03 08:17:43;;;;;;;;;18.67;18.00;;;;;;;;5058650;28;47405;-74
2023/06/03 08:20:10;;;;;;;;;18.33;18.33;;;;;;;;5059718;28;45473;-74
2023/06/03 08:22:38;;;;;;;;;22.67;20.67;;;;;;;;5060150;28;45369;-74
2023/06/03 08:25:03;;;;;;;;;16.00;16.00;;;;;;;;5059880;28;45309;-74
2023/06/03 08:27:30;;;;;;;;;18.67;18.67;;;;;;;;5059939;28;45368;-74
2023/06/03 08:29:57;;;;;;;;;16.67;16.67;;;;;;;;5059865;28;45417;-74
2023/06/03 08:32:22;;;;;;;;;17.67;17.00;;;;;;;;5060235;28;45234;-74
2023/06/03 08:34:47;;;;;;;;;15.00;15.00;;;;;;;;5059682;28;45542;-74
2023/06/03 08:37:13;;;;;;;;;19.00;17.67;;;;;;;;5058324;28;47469;-73
2023/06/03 08:39:38;;;;;;;;;15.00;14.00;;;;;;;;5059730;28;45219;-74
2023/06/03 08:42:08;;;;;;;;;14.00;13.33;;;;;;;;5060086;28;45393;-74
2023/06/03 08:44:43;;;;;;;;;16.33;15.67;;;;;;;;5060049;28;45370;-74
2023/06/03 08:47:12;;;;;;;;;16.00;15.00;;;;;;;;5060106;28;45485;-74
2023/06/03 08:49:43;;;;;;;;;16.33;16.33;;;;;;;;5059711;28;45394;-74
2023/06/03 08:52:10;;;;;;;;;15.00;15.00;;;;;;;;5059551;28;45388;-74
2023/06/03 08:54:37;;;;;;;;;13.00;13.00;;;;;;;;5059737;28;45340;-74
2023/06/03 08:57:05;;;;;;;;;20.33;16.67;;;;;;;;5058234;28;47454;-74
2023/06/03 08:59:32;;;;;;;;;16.67;16.00;;;;;;;;5058121;28;45383;-74
2023/06/03 09:01:58;;;;;;;;;15.33;15.00;;;;;;;;5059691;28;45404;-74
2023/06/03 09:04:23;;;;;;;;;15.67;15.67;;;;;;;;5059171;28;45390;-75
2023/06/03 09:06:49;;;;;;;;;13.00;13.00;;;;;;;;5059147;28;45513;-75
2023/06/03 09:09:14;;;;;;;;;16.67;15.33;;;;;;;;5058013;28;45357;-75
2023/06/03 09:11:42;;;;;;;;;13.00;12.33;;;;;;;;5059911;28;45305;-75
2023/06/03 09:14:08;;;;;;;;;13.33;13.33;;;;;;;;5059466;28;45271;-74
2023/06/03 09:16:34;;;;;;;;;13.67;12.67;;;;;;;;5059392;28;45751;-74
2023/06/03 09:18:59;;;;;;;;;13.33;12.67;;;;;;;;5059290;28;45212;-75
2023/06/03 09:21:25;;;;;;;;;14.00;14.00;;;;;;;;5058153;28;45256;-74
2023/06/03 09:23:53;;;;;;;;;16.67;16.67;;;;;;;;5059596;28;45704;-74
2023/06/03 09:26:18;;;;;;;;;15.00;14.67;;;;;;;;5060278;28;46654;-75
2023/06/03 09:28:47;;;;;;;;;15.33;15.00;;;;;;;;5058180;28;45344;-74
2023/06/03 09:31:12;;;;;;;;;13.67;13.67;;;;;;;;5059677;28;45207;-74
2023/06/03 09:33:38;;;;;;;;;15.33;15.00;;;;;;;;5059290;28;45265;-75
2023/06/03 09:36:06;;;;;;;;;16.00;15.00;;;;;;;;5058986;28;45857;-77
2023/06/03 09:38:47;;;;;;;;;13.00;13.00;;;;;;;;5059467;28;45473;-77
2023/06/03 09:41:17;;;;;;;;;13.67;13.67;;;;;;;;5059516;28;45331;-77
2023/06/03 09:44:01;;;;;;;;;13.33;13.00;;;;;;;;5057816;28;47407;-75
2023/06/03 09:46:28;;;;;;;;;15.67;15.00;;;;;;;;5059241;28;46595;-75
2023/06/03 09:48:53;;;;;;;;;13.33;13.33;;;;;;;;5058899;28;45279;-75
2023/06/03 09:51:18;;;;;;;;;18.67;17.00;;;;;;;;5059256;28;45373;-77
2023/06/03 09:53:43;;;;;;;;;14.00;14.00;;;;;;;;5057873;28;46485;-75
2023/06/03 09:56:25;;;;;;;;;14.67;14.67;;;;;;;;5057963;28;48153;-74
2023/06/03 09:58:52;;;;;;;;;15.67;15.67;;;;;;;;5059139;28;45393;-74
2023/06/03 10:01:27;;;;;;;;;13.33;13.00;;;;;;;;5059177;28;45417;-75
2023/06/03 10:04:00;;;;;;;;;12.33;12.33;;;;;;;;5057588;28;46253;-75
2023/06/03 10:06:26;;;;;;;;;15.00;15.00;;;;;;;;5058021;28;46132;-77
2023/06/03 10:08:51;;;;;;;;;16.00;16.00;;;;;;;;5062016;28;45230;-79
2023/06/03 10:11:17;;;;;;;;;15.00;13.33;;;;;;;;5065646;28;45572;-78
2023/06/03 10:13:44;;;;;;;;;14.67;14.67;;;;;;;;5057321;28;45511;-76
2023/06/03 10:16:10;;;;;;;;;13.67;13.67;;;;;;;;5040510;28;46232;-77
2023/06/03 10:18:40;;;;;;;;;14.00;14.00;;;;;;;;5037153;28;46161;-79
2023/06/03 10:21:06;;;;;;;;;14.67;14.67;;;;;;;;5039087;28;45473;-75
2023/06/03 10:23:31;;;;;;;;;13.67;13.67;;;;;;;;5039850;28;45323;-76
2023/06/03 10:25:57;;;;;;;;;17.00;16.67;;;;;;;;5039358;28;45464;-78
2023/06/03 10:28:23;;;;;;;;;15.33;13.67;;;;;;;;5038380;28;45370;-78
2023/06/03 10:30:49;;;;;;;;;14.33;14.00;;;;;;;;5060694;28;45352;-77
2023/06/03 10:33:15;;;;;;;;;14.00;14.00;;;;;;;;5064799;28;45326;-75
2023/06/03 10:35:41;;;;;;;;;16.67;16.67;;;;;;;;5062254;28;45367;-75
2023/06/03 10:38:07;;;;;;;;;18.00;16.33;;;;;;;;5063655;28;45395;-76
2023/06/03 10:40:32;;;;;;;;;14.00;14.00;;;;;;;;5064253;28;45216;-76
2023/06/03 10:42:58;;;;;;;;;15.33;14.67;;;;;;;;5063763;28;45269;-77
2023/06/03 10:45:23;;;;;;;;;14.00;14.00;;;;;;;;5063413;28;45383;-80
2023/06/03 10:47:50;;;;;;;;;12.67;12.00;;;;;;;;5064113;28;45163;-74
2023/06/03 10:50:18;;;;;;;;;15.67;15.00;;;;;;;;5065073;28;45488;-77
2023/06/03 10:53:02;;;;;;;;;10.67;10.67;;;;;;;;5062859;28;45348;-77
2023/06/03 10:55:36;;;;;;;;;13.67;13.00;;;;;;;;5066296;28;45399;-77
2023/06/03 10:58:20;;;;;;;;;12.67;12.67;;;;;;;;5063509;28;45657;-77
2023/06/03 11:00:58;;;;;;;;;13.67;13.00;;;;;;;;5062559;28;45437;-77
2023/06/03 11:03:34;;;;;;;;;12.00;12.00;;;;;;;;5060421;28;47097;-75
2023/06/03 11:06:28;;;;;;;;;14.00;12.00;;;;;;;;5067821;28;45379;-77
2023/06/03 11:09:05;;;;;;;;;12.67;12.67;;;;;;;;5057829;28;45552;-74
2023/06/03 11:11:40;;;;;;;;;12.00;12.00;;;;;;;;5064385;28;45312;-77
2023/06/03 11:14:05;;;;;;;;;15.33;14.00;;;;;;;;5066763;28;45450;-78
2023/06/03 11:16:30;;;;;;;;;11.33;11.33;;;;;;;;5065571;28;48134;-75
2023/06/03 11:19:15;;;;;;;;;14.00;14.00;;;;;;;;5061282;28;45288;-76
2023/06/03 11:21:47;;;;;;;;;11.00;11.00;;;;;;;;5061631;28;45527;-75
2023/06/03 11:24:32;;;;;;;;;12.67;12.33;;;;;;;;5061607;28;45663;-76
2023/06/03 11:26:57;;;;;;;;;12.00;12.00;;;;;;;;5045021;28;46269;-76
2023/06/03 11:29:41;;;;;;;;;12.67;12.33;;;;;;;;5054590;28;45346;-76
2023/06/03 11:32:13;;;;;;;;;9.33;9.33;;;;;;;;5041301;28;45456;-75
2023/06/03 11:34:39;;;;;;;;;13.33;13.00;;;;;;;;5041861;28;46161;-74
2023/06/03 11:37:04;;;;;;;;;11.00;11.00;;;;;;;;5040181;28;47364;-77
2023/06/03 11:39:49;;;;;;;;;13.00;13.00;;;;;;;;5041133;28;45260;-76
2023/06/03 11:42:15;;;;;;;;;12.33;12.33;;;;;;;;5040848;28;45295;-75
2023/06/03 11:44:41;;;;;;;;;11.00;11.00;;;;;;;;5041115;28;45188;-75
2023/06/03 11:47:07;;;;;;;;;11.67;11.67;;;;;;;;5042792;28;46578;-77
2023/06/03 11:49:33;;;;;;;;;12.67;12.67;;;;;;;;5042012;28;45427;-75
2023/06/03 11:51:59;;;;;;;;;14.67;11.33;;;;;;;;5040298;28;45393;-77
2023/06/03 11:54:25;;;;;;;;;13.67;12.33;;;;;;;;5043249;28;45450;-78
2023/06/03 11:56:51;;;;;;;;;13.33;12.33;;;;;;;;5042303;28;45326;-76
2023/06/03 11:59:19;;;;;;;;;9.67;9.33;;;;;;;;5041587;28;45851;-77
2023/06/03 12:01:53;;;;;;;;;11.00;11.00;;;;;;;;5041750;28;45352;-78
2023/06/03 12:04:19;;;;;;;;;9.33;9.33;;;;;;;;5041907;28;46049;-78
2023/06/03 12:06:44;;;;;;;;;11.00;11.00;;;;;;;;5043999;28;45259;-78
2023/06/03 12:09:10;;;;;;;;;12.33;11.33;;;;;;;;5042368;28;45335;-77
2023/06/03 12:11:40;;;;;;;;;12.00;12.00;;;;;;;;5041303;28;45324;-76
2023/06/03 12:14:05;;;;;;;;;12.00;11.67;;;;;;;;5041248;28;45280;-77
2023/06/03 12:16:32;;;;;;;;;10.33;10.33;;;;;;;;5040849;28;45307;-75
2023/06/03 12:18:58;;;;;;;;;12.33;12.33;;;;;;;;5040496;28;45300;-76
2023/06/03 12:21:24;;;;;;;;;12.67;12.67;;;;;;;;5040486;28;45351;-76
2023/06/03 12:23:49;;;;;;;;;13.00;12.00;;;;;;;;5041770;28;45316;-75
2023/06/03 12:26:14;;;;;;;;;12.00;12.00;;;;;;;;5043987;28;45954;-75
2023/06/03 12:28:40;;;;;;;;;12.67;12.67;;;;;;;;5056275;28;45264;-77
2023/06/03 12:31:12;;;;;;;;;14.00;14.00;;;;;;;;5050405;28;45185;-77
2023/06/03 12:33:41;;;;;;;;;11.67;11.33;;;;;;;;5054660;28;45161;-75
2023/06/03 12:36:07;;;;;;;;;10.67;10.33;;;;;;;;5061712;28;46093;-74
2023/06/03 12:38:32;;;;;;;;;14.33;14.33;;;;;;;;5065556;28;45329;-77
2023/06/03 12:41:10;;;;;;;;;10.33;10.00;;;;;;;;5064783;28;45482;-77
2023/06/03 12:43:35;;;;;;;;;13.67;13.33;;;;;;;;5062072;28;47401;-78
2023/06/03 12:46:14;;;;;;;;;12.67;11.00;;;;;;;;5064481;28;45320;-78
2023/06/03 12:48:39;;;;;;;;;14.00;13.00;;;;;;;;5065114;28;45698;-77
2023/06/03 12:51:20;;;;;;;;;16.33;15.67;;;;;;;;5064176;28;45513;-76
2023/06/03 12:53:45;;;;;;;;;12.00;11.00;;;;;;;;5063301;28;45376;-76
2023/06/03 12:56:12;;;;;;;;;12.00;11.33;;;;;;;;5060546;28;45302;-75
2023/06/03 12:58:37;;;;;;;;;12.67;12.00;;;;;;;;5064521;28;45317;-77
2023/06/03 13:01:03;;;;;;;;;12.00;12.00;;;;;;;;5065922;28;45262;-77
2023/06/03 13:03:28;;;;;;;;;13.00;13.00;;;;;;;;5059665;28;47265;-76
2023/06/03 13:05:53;;;;;;;;;10.33;9.00;;;;;;;;5060271;28;45485;-76
2023/06/03 13:08:18;;;;;;;;;11.00;11.00;;;;;;;;5059863;28;45199;-75
2023/06/03 13:10:43;;;;;;;;;9.67;9.67;;;;;;;;5060816;28;45208;-75
2023/06/03 13:13:09;;;;;;;;;14.00;13.00;;;;;;;;5056437;28;45458;-74
2023/06/03 13:15:34;;;;;;;;;12.67;12.00;;;;;;;;5039739;28;45158;-74
2023/06/03 13:17:59;;;;;;;;;12.33;12.00;;;;;;;;5040148;28;45248;-75
2023/06/03 13:20:25;;;;;;;;;15.00;14.00;;;;;;;;5040361;28;45245;-74
2023/06/03 13:22:50;;;;;;;;;10.00;10.00;;;;;;;;5040989;28;45465;-74
2023/06/03 13:25:15;;;;;;;;;14.00;13.67;;;;;;;;5039198;28;45198;-76
2023/06/03 13:27:41;;;;;;;;;12.33;12.33;;;;;;;;5039194;28;45257;-76
2023/06/03 13:30:06;;;;;;;;;14.00;13.00;;;;;;;;5058369;28;45407;-77
2023/06/03 13:32:32;;;;;;;;;11.00;11.00;;;;;;;;5063319;28;45207;-77
2023/06/03 13:34:59;;;;;;;;;11.67;9.00;;;;;;;;5061757;28;45301;-75
2023/06/03 13:37:24;;;;;;;;;12.00;11.00;;;;;;;;5064643;28;45401;-77
2023/06/03 13:39:49;;;;;;;;;9.00;7.33;;;;;;;;5064102;28;45348;-74
2023/06/03 13:42:15;;;;;;;;;11.00;11.00;;;;;;;;5061053;28;45339;-76
2023/06/03 13:44:40;;;;;;;;;10.00;10.00;;;;;;;;5052252;28;47020;-77
2023/06/03 13:47:07;;;;;;;;;12.33;11.00;;;;;;;;5053957;28;45375;-75
2023/06/03 13:49:32;;;;;;;;;11.67;11.00;;;;;;;;5059692;28;45371;-77
2023/06/03 13:51:57;;;;;;;;;13.67;13.67;;;;;;;;5059129;28;45430;-74
2023/06/03 13:54:23;;;;;;;;;10.00;10.00;;;;;;;;5059313;28;46455;-75
2023/06/03 13:56:53;;;;;;;;;10.33;10.33;;;;;;;;5058114;28;45396;-77
2023/06/03 13:59:18;;;;;;;;;9.33;9.33;;;;;;;;5059714;28;45314;-75
2023/06/03 14:01:43;;;;;;;;;11.00;10.00;;;;;;;;5058048;28;46071;-75
2023/06/03 14:04:09;;;;;;;;;9.33;9.00;;;;;;;;5059336;28;45584;-78
2023/06/03 14:06:34;;;;;;;;;11.00;9.33;;;;;;;;5060797;28;45346;-76
2023/06/03 14:09:00;;;;;;;;;9.33;9.33;;;;;;;;5063355;28;45298;-75
2023/06/03 14:11:25;;;;;;;;;9.33;9.00;;;;;;;;5062752;28;45560;-75
2023/06/03 14:13:50;;;;;;;;;10.67;10.00;;;;;;;;5061145;28;47165;-75
2023/06/03 14:16:15;;;;;;;;;12.00;11.33;;;;;;;;5062606;28;45268;-75
2023/06/03 14:18:41;;;;;;;;;8.00;8.00;;;;;;;;5062495;28;45402;-74